createdAt,value
2019-01-19T00:00:29.164Z,99614.59
2019-01-19T00:03:37.570Z,99626.84
2019-01-19T00:06:47.069Z,99631.62
2019-01-19T00:16:32.368Z,99628.09
2019-01-19T00:19:41.891Z,99623.00
2019-01-19T00:23:10.677Z,99611.84
2019-01-19T00:26:41.860Z,99617.27
2019-01-19T00:29:46.798Z,99612.40
2019-01-19T00:36:01.026Z,99610.61
2019-01-19T00:39:10.546Z,99612.20
2019-01-19T00:42:19.960Z,99609.72
2019-01-19T00:45:34.873Z,99616.42
2019-01-19T00:48:47.359Z,99617.38
2019-01-19T00:51:56.758Z,99617.85
2019-01-19T00:55:25.489Z,99614.02
2019-01-19T00:58:47.814Z,99610.82
2019-01-19T01:02:16.565Z,99624.44
2019-01-19T01:05:25.450Z,99619.89
2019-01-19T01:08:33.697Z,99615.78
2019-01-19T01:11:43.119Z,99611.92
2019-01-19T01:14:52.533Z,99613.13
2019-01-19T01:18:01.965Z,99623.83
2019-01-19T01:21:11.848Z,99628.05
2019-01-19T01:24:21.246Z,99627.27
2019-01-19T01:27:27.208Z,99610.73
2019-01-19T01:30:36.671Z,99604.94
2019-01-19T01:33:46.115Z,99607.88
2019-01-19T01:43:26.768Z,99616.42
2019-01-19T01:46:55.522Z,99610.06
2019-01-19T01:49:51.542Z,99614.66
2019-01-19T01:53:08.969Z,99607.84
2019-01-19T01:56:31.542Z,99604.67
2019-01-19T01:59:41.060Z,99603.55
2019-01-19T02:05:56.711Z,99611.64
2019-01-19T02:12:27.226Z,99608.88
2019-01-19T02:18:44.657Z,99609.41
2019-01-19T02:21:54.069Z,99609.34
2019-01-19T02:25:22.746Z,99613.44
2019-01-19T02:28:33.799Z,99604.36
2019-01-19T02:31:43.193Z,99591.75
2019-01-19T02:41:21.745Z,99598.59
2019-01-19T02:44:31.214Z,99589.39
2019-01-19T02:47:40.654Z,99600.42
2019-01-19T02:50:59.531Z,99589.34
2019-01-19T02:54:27.115Z,99585.64
2019-01-19T02:57:36.521Z,99590.66
2019-01-19T03:00:19.669Z,99589.35
2019-01-19T03:03:29.248Z,99586.07
2019-01-19T03:06:58.093Z,99593.47
2019-01-19T03:10:26.854Z,99582.72
2019-01-19T03:16:43.553Z,99584.47
2019-01-19T03:20:12.280Z,99573.43
2019-01-19T03:23:21.703Z,99568.99
2019-01-19T03:26:50.454Z,99574.53
2019-01-19T03:29:59.847Z,99553.36
2019-01-19T03:33:09.328Z,99558.27
2019-01-19T03:36:18.758Z,99574.31
2019-01-19T03:39:28.975Z,99559.99
2019-01-19T03:42:44.136Z,99556.60
2019-01-19T03:46:13.872Z,99567.31
2019-01-19T03:49:42.633Z,99565.31
2019-01-19T03:53:11.938Z,99569.70
2019-01-19T03:56:21.508Z,99564.70
2019-01-19T03:59:57.925Z,99566.41
2019-01-19T04:03:07.337Z,99563.81
2019-01-19T04:06:40.416Z,99559.84
2019-01-19T04:09:49.845Z,99558.02
2019-01-19T04:15:56.473Z,99548.34
2019-01-19T04:22:40.795Z,99561.97
2019-01-19T04:25:33.487Z,99555.08
2019-01-19T04:33:30.615Z,99559.55
2019-01-19T04:41:26.480Z,99560.00
2019-01-19T04:44:07.779Z,99570.81
2019-01-19T04:46:38.982Z,99547.08
2019-01-19T04:52:12.780Z,99553.00
2019-01-19T05:01:08.528Z,99538.62
2019-01-19T05:03:59.223Z,99538.63
2019-01-19T05:06:30.784Z,99541.64
2019-01-19T05:09:13.135Z,99543.69
2019-01-19T05:12:03.792Z,99552.81
2019-01-19T05:23:47.105Z,99550.63
2019-01-19T05:26:56.810Z,99546.67
2019-01-19T05:29:49.815Z,99548.22
2019-01-19T05:35:45.140Z,99561.84
2019-01-19T05:41:25.250Z,99567.91
2019-01-19T05:52:44.541Z,99559.48
2019-01-19T05:55:16.944Z,99560.49
2019-01-19T05:57:48.347Z,99565.95
2019-01-19T06:08:53.665Z,99560.85
2019-01-19T06:18:39.294Z,99570.23
2019-01-19T06:23:53.696Z,99557.41
2019-01-19T06:33:02.960Z,99566.27
2019-01-19T06:35:46.407Z,99565.70
2019-01-19T06:38:37.228Z,99565.02
2019-01-19T06:41:36.349Z,99562.08
2019-01-19T06:44:07.677Z,99553.95
2019-01-19T06:50:40.002Z,99556.59
2019-01-19T06:53:11.248Z,99565.20
2019-01-19T06:55:42.622Z,99567.76
2019-01-19T07:02:31.398Z,99563.05
2019-01-19T07:05:39.654Z,99565.87
2019-01-19T07:08:10.940Z,99560.34
2019-01-19T07:10:42.185Z,99558.56
2019-01-19T07:17:05.982Z,99563.45
2019-01-19T07:19:37.185Z,99571.36
2019-01-19T07:23:10.275Z,99566.19
2019-01-19T07:29:35.415Z,99570.68
2019-01-19T07:38:40.224Z,99573.02
2019-01-19T07:41:11.461Z,99573.02
2019-01-19T07:44:10.339Z,99576.05
2019-01-19T07:58:13.082Z,99578.91
2019-01-19T08:01:12.383Z,99581.50
2019-01-19T08:04:08.672Z,99571.72
2019-01-19T08:06:39.908Z,99564.35
2019-01-19T08:09:11.168Z,99573.42
2019-01-19T08:17:54.928Z,99569.42
2019-01-19T08:20:56.495Z,99570.34
2019-01-19T08:23:28.125Z,99560.05
2019-01-19T08:25:59.760Z,99571.02
2019-01-19T08:28:31.384Z,99562.33
2019-01-19T08:36:58.105Z,99570.81
2019-01-19T08:39:29.516Z,99572.58
2019-01-19T08:45:45.289Z,99574.36
2019-01-19T08:48:47.326Z,99577.83
2019-01-19T08:51:18.754Z,99575.03
2019-01-19T08:53:49.994Z,99563.88
2019-01-19T08:56:42.408Z,99569.72
2019-01-19T08:59:13.946Z,99567.14
2019-01-19T09:01:45.272Z,99581.06
2019-01-19T09:04:16.648Z,99577.89
2019-01-19T09:07:33.265Z,99260.47
2019-01-19T09:10:16.075Z,99581.11
2019-01-19T09:12:47.463Z,99588.02
2019-01-19T09:15:19.352Z,99585.77
2019-01-19T09:17:50.866Z,99589.20
2019-01-19T09:20:22.734Z,99590.86
2019-01-19T09:29:22.798Z,99580.73
2019-01-19T09:34:47.636Z,99579.38
2019-01-19T09:37:52.694Z,99580.27
2019-01-19T09:43:06.351Z,99566.70
2019-01-19T09:46:16.256Z,99569.36
2019-01-19T09:49:06.895Z,99563.74
2019-01-19T09:54:40.570Z,99563.47
2019-01-19T09:57:11.775Z,99551.48
2019-01-19T10:02:45.425Z,99565.61
2019-01-19T10:05:35.964Z,99561.34
2019-01-19T10:13:41.906Z,99549.36
2019-01-19T10:16:13.450Z,99550.10
2019-01-19T10:19:02.380Z,99545.73
2019-01-19T10:24:18.628Z,99540.48
2019-01-19T10:27:09.232Z,99538.48
2019-01-19T10:35:45.624Z,99522.52
2019-01-19T10:44:03.003Z,99396.23
2019-01-19T10:46:34.208Z,99505.37
2019-01-19T10:52:07.987Z,99508.16
2019-01-19T10:54:58.568Z,99511.42
2019-01-19T10:57:49.542Z,99510.64
2019-01-19T11:03:25.204Z,99513.47
2019-01-19T11:14:09.231Z,99493.81
2019-01-19T11:16:40.447Z,99496.95
2019-01-19T11:22:15.638Z,99488.00
2019-01-19T11:25:22.499Z,99485.08
2019-01-19T11:36:23.410Z,99465.56
2019-01-19T11:41:40.337Z,99464.19
2019-01-19T11:44:11.583Z,99454.42
2019-01-19T11:46:42.810Z,99461.05
2019-01-19T11:58:10.412Z,99443.98
2019-01-19T12:04:05.736Z,99437.19
2019-01-19T12:06:56.269Z,99429.34
2019-01-19T12:12:29.691Z,99425.77
2019-01-19T12:18:37.172Z,99415.26
2019-01-19T12:23:50.572Z,99418.86
2019-01-19T12:32:28.659Z,99409.94
2019-01-19T12:37:45.143Z,99395.30
2019-01-19T12:40:35.699Z,99401.80
2019-01-19T12:43:26.558Z,99397.11
2019-01-19T12:46:17.129Z,99395.11
2019-01-19T12:49:07.727Z,99391.08
2019-01-19T12:52:08.478Z,99380.85
2019-01-19T12:54:42.018Z,99371.45
2019-01-19T12:57:52.063Z,99380.59
2019-01-19T13:00:42.981Z,99371.41
2019-01-19T13:03:33.564Z,99363.84
2019-01-19T13:07:02.427Z,99365.38
2019-01-19T13:10:31.199Z,99365.45
2019-01-19T13:13:45.525Z,99357.61
2019-01-19T13:17:14.354Z,99359.02
2019-01-19T13:20:50.309Z,99348.23
2019-01-19T13:24:01.060Z,99350.72
2019-01-19T13:27:21.208Z,99350.23
2019-01-19T13:30:07.364Z,99358.01
2019-01-19T13:36:24.279Z,99352.25
2019-01-19T13:39:34.086Z,99352.11
2019-01-19T13:43:02.920Z,99345.72
2019-01-19T13:46:31.784Z,99339.55
2019-01-19T13:50:00.576Z,99345.60
2019-01-19T13:56:49.881Z,99343.17
2019-01-19T14:00:04.026Z,99347.25
2019-01-19T14:03:25.960Z,99345.25
2019-01-19T14:06:49.439Z,99345.42
2019-01-19T14:10:01.207Z,99345.36
2019-01-19T14:13:30.152Z,99344.48
2019-01-19T14:16:58.933Z,99341.31
2019-01-19T14:20:27.451Z,99341.45
2019-01-19T14:23:43.086Z,99334.61
2019-01-19T14:26:53.360Z,99338.28
2019-01-19T14:30:23.894Z,99332.17
2019-01-19T14:33:52.784Z,99331.10
2019-01-19T14:37:22.021Z,99325.02
2019-01-19T14:44:08.311Z,99321.55
2019-01-19T14:47:37.130Z,99320.70
2019-01-19T14:51:06.033Z,99318.53
2019-01-19T14:54:34.848Z,99313.73
2019-01-19T14:58:03.753Z,99311.98
2019-01-19T15:01:32.548Z,99314.02
2019-01-19T15:04:46.519Z,99304.84
2019-01-19T15:07:56.054Z,99303.77
2019-01-19T15:11:25.019Z,99307.02
2019-01-19T15:14:50.025Z,99296.83
2019-01-19T15:18:02.498Z,99295.20
2019-01-19T15:21:13.618Z,99294.75
2019-01-19T15:24:37.404Z,99293.91
2019-01-19T15:27:47.625Z,99162.33
2019-01-19T15:31:16.522Z,99294.86
2019-01-19T15:34:45.305Z,99291.36
2019-01-19T15:38:18.806Z,99293.95
2019-01-19T15:41:47.574Z,99294.70
2019-01-19T15:45:16.342Z,99298.30
2019-01-19T15:48:45.151Z,99288.34
2019-01-19T15:52:13.920Z,99285.67
2019-01-19T15:55:41.926Z,99281.28
2019-01-19T15:58:51.779Z,99282.24
2019-01-19T16:02:20.608Z,99275.34
2019-01-19T16:05:23.250Z,99275.39
2019-01-19T16:08:32.059Z,99275.68
2019-01-19T16:11:43.711Z,99276.92
2019-01-19T16:15:12.459Z,99279.56
2019-01-19T16:18:36.122Z,99278.59
2019-01-19T16:22:04.866Z,99281.19
2019-01-19T16:28:46.052Z,99273.83
2019-01-19T16:32:14.818Z,99275.70
2019-01-19T16:35:43.579Z,99267.33
2019-01-19T16:38:42.668Z,99269.15
2019-01-19T16:42:11.520Z,99266.33
2019-01-19T16:45:40.511Z,99259.73
2019-01-19T16:48:50.221Z,99264.20
2019-01-19T16:52:19.728Z,99253.47
2019-01-19T16:55:49.018Z,99259.44
2019-01-19T16:58:51.656Z,99261.11
2019-01-19T17:02:02.648Z,99250.42
2019-01-19T17:05:36.298Z,99259.27
2019-01-19T17:08:47.924Z,99259.09
2019-01-19T17:12:18.737Z,99264.58
2019-01-19T17:15:47.793Z,99258.14
2019-01-19T17:19:17.370Z,99257.52
2019-01-19T17:22:46.340Z,99253.64
2019-01-19T17:26:15.123Z,99261.09
2019-01-19T17:29:45.596Z,99259.66
2019-01-19T17:32:48.702Z,99258.36
2019-01-19T17:35:58.642Z,99254.23
2019-01-19T17:39:27.419Z,99252.52
2019-01-19T17:42:56.749Z,99254.61
2019-01-19T17:46:26.545Z,99255.53
2019-01-19T17:49:55.422Z,99255.87
2019-01-19T17:53:24.837Z,99257.16
2019-01-19T17:56:40.471Z,99253.27
2019-01-19T18:03:19.241Z,99112.84
2019-01-19T18:06:47.991Z,99247.80
2019-01-19T18:10:30.503Z,99246.42
2019-01-19T18:13:59.271Z,99242.86
2019-01-19T18:17:28.039Z,99240.77
2019-01-19T18:20:56.809Z,99238.55
2019-01-19T18:24:26.221Z,99239.80
2019-01-19T18:27:55.855Z,99238.39
2019-01-19T18:31:00.472Z,99240.63
2019-01-19T18:34:19.703Z,99229.20
2019-01-19T18:37:48.510Z,99230.08
2019-01-19T18:41:17.829Z,99226.52
2019-01-19T18:44:47.454Z,99233.14
2019-01-19T18:51:23.647Z,99217.53
2019-01-19T18:54:52.400Z,99213.23
2019-01-19T19:01:37.273Z,99209.48
2019-01-19T19:08:45.005Z,99210.73
2019-01-19T19:11:40.992Z,99208.22
2019-01-19T19:14:56.108Z,99211.94
2019-01-19T19:21:47.961Z,99202.62
2019-01-19T19:25:17.039Z,99203.95
2019-01-19T19:28:44.531Z,99204.33
2019-01-19T19:31:53.959Z,99201.39
2019-01-19T19:35:23.624Z,99201.70
2019-01-19T19:38:52.382Z,99210.00
2019-01-19T19:42:21.148Z,99204.62
2019-01-19T19:45:25.085Z,99206.12
2019-01-19T19:48:34.943Z,99204.67
2019-01-19T19:51:44.713Z,99199.61
2019-01-19T19:54:50.338Z,99200.45
2019-01-19T19:58:06.070Z,99199.98
2019-01-19T20:00:56.691Z,99198.94
2019-01-19T20:03:47.252Z,99165.19
2019-01-19T20:06:37.869Z,99202.97
2019-01-19T20:09:21.092Z,99192.00
2019-01-19T20:15:14.207Z,99183.81
2019-01-19T20:18:15.927Z,99181.61
2019-01-19T20:34:34.749Z,99173.66
2019-01-19T20:43:25.820Z,99163.70
2019-01-19T20:46:16.377Z,99161.60
2019-01-19T20:49:07.017Z,99164.02
2019-01-19T20:55:00.862Z,99157.20
2019-01-19T21:00:34.595Z,99155.93
2019-01-19T21:11:57.852Z,99151.45
2019-01-19T21:14:48.677Z,99158.30
2019-01-19T21:20:24.153Z,99148.89
2019-01-19T21:23:16.587Z,99149.50
2019-01-19T21:26:07.175Z,99146.69
2019-01-19T21:28:57.828Z,99145.69
2019-01-19T21:31:48.396Z,99141.73
2019-01-19T21:40:22.559Z,99137.01
2019-01-19T21:42:56.185Z,99144.47
2019-01-19T21:45:27.447Z,99137.05
2019-01-19T21:48:37.117Z,99140.23
2019-01-19T21:51:46.787Z,99142.52
2019-01-19T21:54:37.401Z,99145.39
2019-01-19T21:57:28.012Z,99144.92
2019-01-19T22:00:18.762Z,99136.24
2019-01-19T22:11:22.262Z,99131.42
2019-01-19T22:14:12.867Z,99128.79
2019-01-19T22:17:03.573Z,99133.38
2019-01-19T22:19:34.836Z,99130.70
2019-01-19T22:22:25.425Z,99126.12
2019-01-19T22:25:16.312Z,99126.52
2019-01-19T22:28:06.877Z,99125.41
2019-01-19T22:30:57.487Z,99125.39
2019-01-19T22:36:32.398Z,99124.80
2019-01-19T22:39:14.256Z,99115.27
2019-01-19T22:48:05.385Z,99111.35
2019-01-19T22:50:58.117Z,99112.92
2019-01-19T22:56:34.627Z,99103.10
2019-01-19T22:59:29.009Z,99105.73
2019-01-19T23:02:26.156Z,99105.09
2019-01-19T23:08:28.246Z,99098.59
2019-01-19T23:20:20.598Z,99085.97
2019-01-19T23:23:05.965Z,99079.94
2019-01-19T23:25:44.005Z,99079.88
2019-01-19T23:28:16.568Z,99068.59
2019-01-19T23:31:19.881Z,99074.45
2019-01-19T23:36:58.716Z,99064.89
2019-01-19T23:40:02.431Z,99062.52
2019-01-19T23:42:36.753Z,99061.67
2019-01-19T23:50:56.841Z,99053.93
2019-01-19T23:56:18.740Z,99053.45
2019-01-19T23:59:09.977Z,99045.91
